sensor_id;sensor_type;location;lat;lon;timestamp;temperature;humidity
5192;DHT22;2615;44.524;11.284;2023-12-20T00:02:15;7.40;50.60
5192;DHT22;2615;44.524;11.284;2023-12-20T00:04:43;7.40;50.70
5192;DHT22;2615;44.524;11.284;2023-12-20T00:07:11;7.40;50.70
5192;DHT22;2615;44.524;11.284;2023-12-20T00:09:40;7.40;50.80
5192;DHT22;2615;44.524;11.284;2023-12-20T00:12:08;7.40;50.80
5192;DHT22;2615;44.524;11.284;2023-12-20T00:14:36;7.30;50.70
5192;DHT22;2615;44.524;11.284;2023-12-20T00:17:06;7.30;50.80
5192;DHT22;2615;44.524;11.284;2023-12-20T00:19:34;7.30;50.80
5192;DHT22;2615;44.524;11.284;2023-12-20T00:22:03;7.30;50.80
5192;DHT22;2615;44.524;11.284;2023-12-20T00:24:31;7.30;50.80
5192;DHT22;2615;44.524;11.284;2023-12-20T00:26:59;7.30;50.80
5192;DHT22;2615;44.524;11.284;2023-12-20T00:29:27;7.20;50.80
5192;DHT22;2615;44.524;11.284;2023-12-20T00:31:55;7.20;50.80
5192;DHT22;2615;44.524;11.284;2023-12-20T00:34:25;7.20;50.90
5192;DHT22;2615;44.524;11.284;2023-12-20T00:36:53;7.20;50.90
5192;DHT22;2615;44.524;11.284;2023-12-20T00:39:21;7.20;50.90
5192;DHT22;2615;44.524;11.284;2023-12-20T00:41:51;7.10;50.80
5192;DHT22;2615;44.524;11.284;2023-12-20T00:44:19;7.20;50.90
5192;DHT22;2615;44.524;11.284;2023-12-20T00:46:47;7.10;50.80
5192;DHT22;2615;44.524;11.284;2023-12-20T00:49:15;7.10;50.90
5192;DHT22;2615;44.524;11.284;2023-12-20T00:51:44;7.10;50.90
5192;DHT22;2615;44.524;11.284;2023-12-20T00:54:13;7.10;50.90
5192;DHT22;2615;44.524;11.284;2023-12-20T00:56:41;7.00;50.90
5192;DHT22;2615;44.524;11.284;2023-12-20T00:59:10;7.00;51.00
5192;DHT22;2615;44.524;11.284;2023-12-20T01:01:38;7.00;51.00
5192;DHT22;2615;44.524;11.284;2023-12-20T01:04:06;7.00;51.00
5192;DHT22;2615;44.524;11.284;2023-12-20T01:06:35;7.00;51.10
5192;DHT22;2615;44.524;11.284;2023-12-20T01:09:04;7.00;51.10
5192;DHT22;2615;44.524;11.284;2023-12-20T01:11:33;7.00;51.10
5192;DHT22;2615;44.524;11.284;2023-12-20T01:14:01;6.90;51.00
5192;DHT22;2615;44.524;11.284;2023-12-20T01:16:29;6.90;51.10
5192;DHT22;2615;44.524;11.284;2023-12-20T01:18:57;6.90;51.10
5192;DHT22;2615;44.524;11.284;2023-12-20T01:21:25;6.90;51.10
5192;DHT22;2615;44.524;11.284;2023-12-20T01:23:53;6.90;51.10
5192;DHT22;2615;44.524;11.284;2023-12-20T01:26:23;6.90;51.20
5192;DHT22;2615;44.524;11.284;2023-12-20T01:28:51;6.90;51.20
5192;DHT22;2615;44.524;11.284;2023-12-20T01:31:19;6.80;51.10
5192;DHT22;2615;44.524;11.284;2023-12-20T01:33:47;6.80;51.20
5192;DHT22;2615;44.524;11.284;2023-12-20T01:36:15;6.80;51.20
5192;DHT22;2615;44.524;11.284;2023-12-20T01:38:43;6.80;51.30
5192;DHT22;2615;44.524;11.284;2023-12-20T01:41:12;6.80;51.30
5192;DHT22;2615;44.524;11.284;2023-12-20T01:43:41;6.90;51.40
5192;DHT22;2615;44.524;11.284;2023-12-20T01:46:17;6.90;51.40
5192;DHT22;2615;44.524;11.284;2023-12-20T01:48:47;6.90;51.40
5192;DHT22;2615;44.524;11.284;2023-12-20T01:51:15;6.90;51.40
5192;DHT22;2615;44.524;11.284;2023-12-20T01:53:44;6.90;51.40
5192;DHT22;2615;44.524;11.284;2023-12-20T01:56:12;6.90;51.40
5192;DHT22;2615;44.524;11.284;2023-12-20T01:58:44;6.90;51.40
5192;DHT22;2615;44.524;11.284;2023-12-20T02:01:13;6.90;51.40
5192;DHT22;2615;44.524;11.284;2023-12-20T02:03:41;6.90;51.40
5192;DHT22;2615;44.524;11.284;2023-12-20T02:06:10;6.90;51.50
5192;DHT22;2615;44.524;11.284;2023-12-20T02:08:38;6.90;51.40
5192;DHT22;2615;44.524;11.284;2023-12-20T02:11:07;7.00;51.50
5192;DHT22;2615;44.524;11.284;2023-12-20T02:13:35;7.00;51.50
5192;DHT22;2615;44.524;11.284;2023-12-20T02:16:05;7.00;51.40
5192;DHT22;2615;44.524;11.284;2023-12-20T02:18:34;7.00;51.40
5192;DHT22;2615;44.524;11.284;2023-12-20T02:21:04;7.00;51.40
5192;DHT22;2615;44.524;11.284;2023-12-20T02:23:34;7.00;51.50
5192;DHT22;2615;44.524;11.284;2023-12-20T02:26:03;7.00;51.40
5192;DHT22;2615;44.524;11.284;2023-12-20T02:28:33;7.00;51.50
5192;DHT22;2615;44.524;11.284;2023-12-20T02:31:02;7.00;51.50
5192;DHT22;2615;44.524;11.284;2023-12-20T02:33:31;6.90;51.40
5192;DHT22;2615;44.524;11.284;2023-12-20T02:35:59;6.90;51.40
5192;DHT22;2615;44.524;11.284;2023-12-20T02:38:27;6.90;51.50
5192;DHT22;2615;44.524;11.284;2023-12-20T02:40:56;6.90;51.50
5192;DHT22;2615;44.524;11.284;2023-12-20T02:43:25;6.90;51.50
5192;DHT22;2615;44.524;11.284;2023-12-20T02:45:53;6.80;51.40
5192;DHT22;2615;44.524;11.284;2023-12-20T02:48:21;6.80;51.50
5192;DHT22;2615;44.524;11.284;2023-12-20T02:50:49;6.80;51.50
5192;DHT22;2615;44.524;11.284;2023-12-20T02:53:17;6.80;51.60
5192;DHT22;2615;44.524;11.284;2023-12-20T02:55:45;6.80;51.60
5192;DHT22;2615;44.524;11.284;2023-12-20T02:58:15;6.70;51.60
5192;DHT22;2615;44.524;11.284;2023-12-20T03:00:44;6.80;51.70
5192;DHT22;2615;44.524;11.284;2023-12-20T03:03:13;6.80;51.60
5192;DHT22;2615;44.524;11.284;2023-12-20T03:05:41;6.70;51.60
5192;DHT22;2615;44.524;11.284;2023-12-20T03:08:09;6.80;51.70
5192;DHT22;2615;44.524;11.284;2023-12-20T03:10:37;6.70;51.60
5192;DHT22;2615;44.524;11.284;2023-12-20T03:13:06;6.70;51.60
5192;DHT22;2615;44.524;11.284;2023-12-20T03:15:35;6.60;51.50
5192;DHT22;2615;44.524;11.284;2023-12-20T03:18:04;6.60;51.50
5192;DHT22;2615;44.524;11.284;2023-12-20T03:20:33;6.50;51.50
5192;DHT22;2615;44.524;11.284;2023-12-20T03:23:01;6.50;51.50
5192;DHT22;2615;44.524;11.284;2023-12-20T03:25:29;6.40;51.50
5192;DHT22;2615;44.524;11.284;2023-12-20T03:27:57;6.30;51.50
5192;DHT22;2615;44.524;11.284;2023-12-20T03:30:26;6.20;51.40
5192;DHT22;2615;44.524;11.284;2023-12-20T03:32:55;6.20;51.50
5192;DHT22;2615;44.524;11.284;2023-12-20T03:35:23;6.10;51.10
5192;DHT22;2615;44.524;11.284;2023-12-20T03:37:52;6.10;51.50
5192;DHT22;2615;44.524;11.284;2023-12-20T03:40:20;6.00;51.50
5192;DHT22;2615;44.524;11.284;2023-12-20T03:42:49;6.00;51.50
5192;DHT22;2615;44.524;11.284;2023-12-20T03:45:17;6.00;51.50
5192;DHT22;2615;44.524;11.284;2023-12-20T03:47:45;5.90;51.50
5192;DHT22;2615;44.524;11.284;2023-12-20T03:50:16;5.90;51.60
5192;DHT22;2615;44.524;11.284;2023-12-20T03:52:44;5.90;51.60
5192;DHT22;2615;44.524;11.284;2023-12-20T03:55:13;5.80;51.60
5192;DHT22;2615;44.524;11.284;2023-12-20T03:57:41;5.80;51.60
5192;DHT22;2615;44.524;11.284;2023-12-20T04:00:11;5.70;51.50
5192;DHT22;2615;44.524;11.284;2023-12-20T04:02:39;5.70;51.60
5192;DHT22;2615;44.524;11.284;2023-12-20T04:05:09;5.70;51.60
5192;DHT22;2615;44.524;11.284;2023-12-20T04:07:38;5.70;51.60
5192;DHT22;2615;44.524;11.284;2023-12-20T04:10:07;5.70;51.60
5192;DHT22;2615;44.524;11.284;2023-12-20T04:12:36;5.60;51.60
5192;DHT22;2615;44.524;11.284;2023-12-20T04:15:05;5.60;51.60
5192;DHT22;2615;44.524;11.284;2023-12-20T04:17:36;5.60;51.70
5192;DHT22;2615;44.524;11.284;2023-12-20T04:20:05;5.60;51.70
5192;DHT22;2615;44.524;11.284;2023-12-20T04:22:34;5.50;51.60
5192;DHT22;2615;44.524;11.284;2023-12-20T04:25:04;5.50;51.60
5192;DHT22;2615;44.524;11.284;2023-12-20T04:27:32;5.50;51.60
5192;DHT22;2615;44.524;11.284;2023-12-20T04:30:00;5.40;51.60
5192;DHT22;2615;44.524;11.284;2023-12-20T04:32:29;5.40;51.60
5192;DHT22;2615;44.524;11.284;2023-12-20T04:34:58;5.40;51.70
5192;DHT22;2615;44.524;11.284;2023-12-20T04:37:26;5.40;51.70
5192;DHT22;2615;44.524;11.284;2023-12-20T04:39:54;5.40;51.70
5192;DHT22;2615;44.524;11.284;2023-12-20T04:42:24;5.40;51.80
5192;DHT22;2615;44.524;11.284;2023-12-20T04:44:52;5.50;51.80
5192;DHT22;2615;44.524;11.284;2023-12-20T04:47:20;5.50;51.80
5192;DHT22;2615;44.524;11.284;2023-12-20T04:49:48;5.50;51.90
5192;DHT22;2615;44.524;11.284;2023-12-20T04:52:16;5.50;51.90
5192;DHT22;2615;44.524;11.284;2023-12-20T04:54:45;5.50;51.90
5192;DHT22;2615;44.524;11.284;2023-12-20T04:57:13;5.60;52.00
5192;DHT22;2615;44.524;11.284;2023-12-20T04:59:42;5.60;52.00
5192;DHT22;2615;44.524;11.284;2023-12-20T05:02:10;5.60;52.00
5192;DHT22;2615;44.524;11.284;2023-12-20T05:04:39;5.70;52.00
5192;DHT22;2615;44.524;11.284;2023-12-20T05:07:08;5.70;52.00
5192;DHT22;2615;44.524;11.284;2023-12-20T05:09:36;5.70;52.00
5192;DHT22;2615;44.524;11.284;2023-12-20T05:12:05;5.70;52.00
5192;DHT22;2615;44.524;11.284;2023-12-20T05:14:33;5.70;52.00
5192;DHT22;2615;44.524;11.284;2023-12-20T05:17:03;5.70;52.00
5192;DHT22;2615;44.524;11.284;2023-12-20T05:19:31;5.80;52.10
5192;DHT22;2615;44.524;11.284;2023-12-20T05:22:02;5.80;52.10
5192;DHT22;2615;44.524;11.284;2023-12-20T05:24:30;5.80;52.10
5192;DHT22;2615;44.524;11.284;2023-12-20T05:26:58;5.80;52.10
5192;DHT22;2615;44.524;11.284;2023-12-20T05:29:27;5.90;52.20
5192;DHT22;2615;44.524;11.284;2023-12-20T05:31:55;5.90;52.10
5192;DHT22;2615;44.524;11.284;2023-12-20T05:34:24;5.90;52.10
5192;DHT22;2615;44.524;11.284;2023-12-20T05:36:52;5.90;52.10
5192;DHT22;2615;44.524;11.284;2023-12-20T05:39:20;5.90;52.10
5192;DHT22;2615;44.524;11.284;2023-12-20T05:41:49;5.90;52.10
5192;DHT22;2615;44.524;11.284;2023-12-20T05:44:17;5.90;52.20
5192;DHT22;2615;44.524;11.284;2023-12-20T05:46:45;5.90;52.80
5192;DHT22;2615;44.524;11.284;2023-12-20T05:49:14;5.90;52.10
5192;DHT22;2615;44.524;11.284;2023-12-20T05:51:43;5.80;52.00
5192;DHT22;2615;44.524;11.284;2023-12-20T05:54:11;5.80;52.00
5192;DHT22;2615;44.524;11.284;2023-12-20T05:56:40;5.80;52.10
5192;DHT22;2615;44.524;11.284;2023-12-20T05:59:08;5.70;52.10
5192;DHT22;2615;44.524;11.284;2023-12-20T06:01:36;5.70;52.10
5192;DHT22;2615;44.524;11.284;2023-12-20T06:04:04;5.70;52.10
5192;DHT22;2615;44.524;11.284;2023-12-20T06:06:32;5.60;52.10
5192;DHT22;2615;44.524;11.284;2023-12-20T06:09:02;5.60;52.10
5192;DHT22;2615;44.524;11.284;2023-12-20T06:11:30;5.60;52.20
5192;DHT22;2615;44.524;11.284;2023-12-20T06:13:58;5.60;52.20
5192;DHT22;2615;44.524;11.284;2023-12-20T06:16:27;5.50;52.30
5192;DHT22;2615;44.524;11.284;2023-12-20T06:18:55;5.60;52.50
5192;DHT22;2615;44.524;11.284;2023-12-20T06:21:23;5.60;52.40
5192;DHT22;2615;44.524;11.284;2023-12-20T06:23:51;5.60;52.50
5192;DHT22;2615;44.524;11.284;2023-12-20T06:26:21;5.60;52.40
5192;DHT22;2615;44.524;11.284;2023-12-20T06:28:49;5.70;52.50
5192;DHT22;2615;44.524;11.284;2023-12-20T06:31:17;5.70;52.40
5192;DHT22;2615;44.524;11.284;2023-12-20T06:33:45;5.70;52.50
5192;DHT22;2615;44.524;11.284;2023-12-20T06:36:14;5.70;52.40
5192;DHT22;2615;44.524;11.284;2023-12-20T06:38:42;5.70;52.40
5192;DHT22;2615;44.524;11.284;2023-12-20T06:41:13;5.80;52.50
5192;DHT22;2615;44.524;11.284;2023-12-20T06:43:43;5.70;52.40
5192;DHT22;2615;44.524;11.284;2023-12-20T06:46:16;5.70;52.40
5192;DHT22;2615;44.524;11.284;2023-12-20T06:48:45;5.70;52.40
5192;DHT22;2615;44.524;11.284;2023-12-20T06:51:15;5.70;52.40
5192;DHT22;2615;44.524;11.284;2023-12-20T06:53:44;5.70;52.50
5192;DHT22;2615;44.524;11.284;2023-12-20T06:56:12;5.70;52.50
5192;DHT22;2615;44.524;11.284;2023-12-20T06:58:45;5.70;52.50
5192;DHT22;2615;44.524;11.284;2023-12-20T07:01:14;5.80;52.60
5192;DHT22;2615;44.524;11.284;2023-12-20T07:03:43;5.80;52.60
5192;DHT22;2615;44.524;11.284;2023-12-20T07:06:11;5.80;52.60
5192;DHT22;2615;44.524;11.284;2023-12-20T07:08:40;5.90;52.60
5192;DHT22;2615;44.524;11.284;2023-12-20T07:11:08;5.90;52.70
5192;DHT22;2615;44.524;11.284;2023-12-20T07:13:37;6.00;52.70
5192;DHT22;2615;44.524;11.284;2023-12-20T07:16:07;6.00;52.60
5192;DHT22;2615;44.524;11.284;2023-12-20T07:18:35;6.10;52.70
5192;DHT22;2615;44.524;11.284;2023-12-20T07:21:03;6.20;52.70
5192;DHT22;2615;44.524;11.284;2023-12-20T07:23:32;6.20;52.60
5192;DHT22;2615;44.524;11.284;2023-12-20T07:26:00;6.30;52.70
5192;DHT22;2615;44.524;11.284;2023-12-20T07:28:28;6.40;52.80
5192;DHT22;2615;44.524;11.284;2023-12-20T07:30:56;6.60;52.40
5192;DHT22;2615;44.524;11.284;2023-12-20T07:33:26;6.60;52.80
5192;DHT22;2615;44.524;11.284;2023-12-20T07:35:54;6.70;52.30
5192;DHT22;2615;44.524;11.284;2023-12-20T07:38:22;6.80;52.90
5192;DHT22;2615;44.524;11.284;2023-12-20T07:40:50;6.90;52.80
5192;DHT22;2615;44.524;11.284;2023-12-20T07:43:19;7.00;52.80
5192;DHT22;2615;44.524;11.284;2023-12-20T07:45:49;7.10;52.80
5192;DHT22;2615;44.524;11.284;2023-12-20T07:48:20;7.10;52.80
5192;DHT22;2615;44.524;11.284;2023-12-20T07:50:52;7.30;52.90
5192;DHT22;2615;44.524;11.284;2023-12-20T07:53:22;7.40;52.80
5192;DHT22;2615;44.524;11.284;2023-12-20T07:55:50;7.40;52.80
5192;DHT22;2615;44.524;11.284;2023-12-20T07:58:19;7.50;52.80
5192;DHT22;2615;44.524;11.284;2023-12-20T08:00:50;7.60;52.80
5192;DHT22;2615;44.524;11.284;2023-12-20T08:03:19;7.70;52.80
5192;DHT22;2615;44.524;11.284;2023-12-20T08:05:47;7.70;52.70
5192;DHT22;2615;44.524;11.284;2023-12-20T08:08:16;7.80;52.80
5192;DHT22;2615;44.524;11.284;2023-12-20T08:10:44;7.90;52.80
5192;DHT22;2615;44.524;11.284;2023-12-20T08:13:13;7.90;52.70
5192;DHT22;2615;44.524;11.284;2023-12-20T08:15:41;7.90;52.70
5192;DHT22;2615;44.524;11.284;2023-12-20T08:18:09;8.00;52.80
5192;DHT22;2615;44.524;11.284;2023-12-20T08:20:37;8.00;52.80
5192;DHT22;2615;44.524;11.284;2023-12-20T08:23:07;8.00;52.80
5192;DHT22;2615;44.524;11.284;2023-12-20T08:25:36;8.10;52.80
5192;DHT22;2615;44.524;11.284;2023-12-20T08:28:05;8.10;52.80
5192;DHT22;2615;44.524;11.284;2023-12-20T08:30:33;8.10;52.80
5192;DHT22;2615;44.524;11.284;2023-12-20T08:33:01;8.10;52.80
5192;DHT22;2615;44.524;11.284;2023-12-20T08:35:30;8.10;52.80
5192;DHT22;2615;44.524;11.284;2023-12-20T08:37:58;8.10;52.80
5192;DHT22;2615;44.524;11.284;2023-12-20T08:40:26;8.20;52.90
5192;DHT22;2615;44.524;11.284;2023-12-20T08:42:56;8.20;52.90
5192;DHT22;2615;44.524;11.284;2023-12-20T08:45:24;8.20;52.90
5192;DHT22;2615;44.524;11.284;2023-12-20T08:47:52;8.20;52.80
5192;DHT22;2615;44.524;11.284;2023-12-20T08:50:23;8.20;52.80
5192;DHT22;2615;44.524;11.284;2023-12-20T08:52:52;8.20;52.70
5192;DHT22;2615;44.524;11.284;2023-12-20T08:55:20;8.30;52.80
5192;DHT22;2615;44.524;11.284;2023-12-20T08:57:48;8.30;52.70
5192;DHT22;2615;44.524;11.284;2023-12-20T09:00:19;8.30;52.70
5192;DHT22;2615;44.524;11.284;2023-12-20T09:02:51;8.40;52.80
5192;DHT22;2615;44.524;11.284;2023-12-20T09:05:19;8.40;52.70
5192;DHT22;2615;44.524;11.284;2023-12-20T09:07:47;8.50;52.80
5192;DHT22;2615;44.524;11.284;2023-12-20T09:10:16;8.50;52.70
5192;DHT22;2615;44.524;11.284;2023-12-20T09:12:49;8.60;52.70
5192;DHT22;2615;44.524;11.284;2023-12-20T09:15:19;8.70;52.70
5192;DHT22;2615;44.524;11.284;2023-12-20T09:17:47;8.80;52.70
5192;DHT22;2615;44.524;11.284;2023-12-20T09:20:17;8.90;52.70
5192;DHT22;2615;44.524;11.284;2023-12-20T09:22:45;8.90;52.60
5192;DHT22;2615;44.524;11.284;2023-12-20T09:25:14;9.00;52.50
5192;DHT22;2615;44.524;11.284;2023-12-20T09:27:44;9.10;52.60
5192;DHT22;2615;44.524;11.284;2023-12-20T09:30:13;9.30;52.70
5192;DHT22;2615;44.524;11.284;2023-12-20T09:32:54;9.40;52.70
5192;DHT22;2615;44.524;11.284;2023-12-20T09:35:23;9.50;52.50
5192;DHT22;2615;44.524;11.284;2023-12-20T09:37:51;9.60;52.50
5192;DHT22;2615;44.524;11.284;2023-12-20T09:40:19;9.70;52.50
5192;DHT22;2615;44.524;11.284;2023-12-20T09:42:50;9.70;52.40
5192;DHT22;2615;44.524;11.284;2023-12-20T09:45:21;9.80;52.40
5192;DHT22;2615;44.524;11.284;2023-12-20T09:47:50;9.90;52.40
5192;DHT22;2615;44.524;11.284;2023-12-20T09:50:20;9.90;52.40
5192;DHT22;2615;44.524;11.284;2023-12-20T09:52:50;10.00;51.50
5192;DHT22;2615;44.524;11.284;2023-12-20T09:55:19;10.10;51.50
5192;DHT22;2615;44.524;11.284;2023-12-20T09:57:48;10.10;51.40
5192;DHT22;2615;44.524;11.284;2023-12-20T10:00:17;10.20;51.40
5192;DHT22;2615;44.524;11.284;2023-12-20T10:02:50;10.20;51.30
5192;DHT22;2615;44.524;11.284;2023-12-20T10:05:27;10.30;51.40
5192;DHT22;2615;44.524;11.284;2023-12-20T10:07:55;10.40;51.40
5192;DHT22;2615;44.524;11.284;2023-12-20T10:10:24;10.40;51.30
5192;DHT22;2615;44.524;11.284;2023-12-20T10:13:10;10.50;51.30
5192;DHT22;2615;44.524;11.284;2023-12-20T10:15:38;10.50;51.20
5192;DHT22;2615;44.524;11.284;2023-12-20T10:18:08;10.60;51.20
5192;DHT22;2615;44.524;11.284;2023-12-20T10:20:40;10.70;51.20
5192;DHT22;2615;44.524;11.284;2023-12-20T10:23:10;10.70;51.10
5192;DHT22;2615;44.524;11.284;2023-12-20T10:25:39;10.80;51.10
5192;DHT22;2615;44.524;11.284;2023-12-20T10:28:10;10.90;51.20
5192;DHT22;2615;44.524;11.284;2023-12-20T10:30:40;11.00;51.10
5192;DHT22;2615;44.524;11.284;2023-12-20T10:33:10;11.20;51.10
5192;DHT22;2615;44.524;11.284;2023-12-20T10:35:40;11.20;51.00
5192;DHT22;2615;44.524;11.284;2023-12-20T10:38:15;11.40;51.00
5192;DHT22;2615;44.524;11.284;2023-12-20T10:40:44;11.50;50.90
5192;DHT22;2615;44.524;11.284;2023-12-20T10:43:13;11.50;50.80
5192;DHT22;2615;44.524;11.284;2023-12-20T10:45:42;11.60;50.70
5192;DHT22;2615;44.524;11.284;2023-12-20T10:48:12;11.60;50.70
5192;DHT22;2615;44.524;11.284;2023-12-20T10:50:42;11.70;50.60
5192;DHT22;2615;44.524;11.284;2023-12-20T10:53:12;11.70;50.60
5192;DHT22;2615;44.524;11.284;2023-12-20T10:55:42;11.70;50.60
5192;DHT22;2615;44.524;11.284;2023-12-20T10:58:10;11.80;50.60
5192;DHT22;2615;44.524;11.284;2023-12-20T11:00:40;11.80;50.60
5192;DHT22;2615;44.524;11.284;2023-12-20T11:03:09;11.80;50.60
5192;DHT22;2615;44.524;11.284;2023-12-20T11:05:46;11.80;50.60
5192;DHT22;2615;44.524;11.284;2023-12-20T11:08:22;11.80;50.60
5192;DHT22;2615;44.524;11.284;2023-12-20T11:10:58;11.80;50.60
5192;DHT22;2615;44.524;11.284;2023-12-20T11:13:31;11.90;50.70
5192;DHT22;2615;44.524;11.284;2023-12-20T11:16:01;11.90;50.50
5192;DHT22;2615;44.524;11.284;2023-12-20T11:18:30;12.00;50.60
5192;DHT22;2615;44.524;11.284;2023-12-20T11:21:04;12.00;50.50
5192;DHT22;2615;44.524;11.284;2023-12-20T11:23:32;12.10;51.20
5192;DHT22;2615;44.524;11.284;2023-12-20T11:26:02;12.20;50.50
5192;DHT22;2615;44.524;11.284;2023-12-20T11:28:30;12.20;50.40
5192;DHT22;2615;44.524;11.284;2023-12-20T11:31:01;12.30;50.40
5192;DHT22;2615;44.524;11.284;2023-12-20T11:33:30;12.30;50.40
5192;DHT22;2615;44.524;11.284;2023-12-20T11:35:59;12.30;50.30
5192;DHT22;2615;44.524;11.284;2023-12-20T11:38:36;12.40;50.30
5192;DHT22;2615;44.524;11.284;2023-12-20T11:41:06;12.40;50.20
5192;DHT22;2615;44.524;11.284;2023-12-20T11:43:37;12.40;50.10
5192;DHT22;2615;44.524;11.284;2023-12-20T11:46:07;12.40;50.10
5192;DHT22;2615;44.524;11.284;2023-12-20T11:48:38;12.50;50.20
5192;DHT22;2615;44.524;11.284;2023-12-20T11:51:10;12.40;50.00
5192;DHT22;2615;44.524;11.284;2023-12-20T11:53:40;12.40;50.00
5192;DHT22;2615;44.524;11.284;2023-12-20T11:56:09;12.40;50.00
5192;DHT22;2615;44.524;11.284;2023-12-20T11:58:38;12.40;50.00
5192;DHT22;2615;44.524;11.284;2023-12-20T12:01:06;12.40;50.00
5192;DHT22;2615;44.524;11.284;2023-12-20T12:03:36;12.40;50.10
5192;DHT22;2615;44.524;11.284;2023-12-20T12:06:04;12.40;50.10
5192;DHT22;2615;44.524;11.284;2023-12-20T12:08:32;12.40;50.10
5192;DHT22;2615;44.524;11.284;2023-12-20T12:11:03;12.50;50.10
5192;DHT22;2615;44.524;11.284;2023-12-20T12:13:31;12.60;50.10
5192;DHT22;2615;44.524;11.284;2023-12-20T12:15:59;12.60;50.00
5192;DHT22;2615;44.524;11.284;2023-12-20T12:18:27;12.70;50.00
5192;DHT22;2615;44.524;11.284;2023-12-20T12:21:00;12.70;49.90
5192;DHT22;2615;44.524;11.284;2023-12-20T12:23:36;12.80;49.90
5192;DHT22;2615;44.524;11.284;2023-12-20T12:26:06;12.80;49.90
5192;DHT22;2615;44.524;11.284;2023-12-20T12:28:35;12.80;49.80
5192;DHT22;2615;44.524;11.284;2023-12-20T12:31:04;12.80;49.80
5192;DHT22;2615;44.524;11.284;2023-12-20T12:33:32;12.80;49.80
5192;DHT22;2615;44.524;11.284;2023-12-20T12:36:00;12.80;49.80
5192;DHT22;2615;44.524;11.284;2023-12-20T12:38:30;12.80;49.80
5192;DHT22;2615;44.524;11.284;2023-12-20T12:41:00;12.80;49.80
5192;DHT22;2615;44.524;11.284;2023-12-20T12:43:29;12.80;49.80
5192;DHT22;2615;44.524;11.284;2023-12-20T12:45:59;12.90;49.90
5192;DHT22;2615;44.524;11.284;2023-12-20T12:48:28;12.90;49.90
5192;DHT22;2615;44.524;11.284;2023-12-20T12:50:56;12.90;49.90
5192;DHT22;2615;44.524;11.284;2023-12-20T12:53:26;12.90;49.90
5192;DHT22;2615;44.524;11.284;2023-12-20T12:55:54;12.90;49.90
5192;DHT22;2615;44.524;11.284;2023-12-20T12:58:22;12.90;49.90
5192;DHT22;2615;44.524;11.284;2023-12-20T13:00:53;12.80;49.80
5192;DHT22;2615;44.524;11.284;2023-12-20T13:03:22;12.80;49.80
5192;DHT22;2615;44.524;11.284;2023-12-20T13:05:51;12.80;49.80
5192;DHT22;2615;44.524;11.284;2023-12-20T13:08:19;12.80;49.80
5192;DHT22;2615;44.524;11.284;2023-12-20T13:10:47;12.70;49.70
5192;DHT22;2615;44.524;11.284;2023-12-20T13:13:16;12.70;49.80
5192;DHT22;2615;44.524;11.284;2023-12-20T13:15:44;12.60;49.90
5192;DHT22;2615;44.524;11.284;2023-12-20T13:18:19;12.60;49.80
5192;DHT22;2615;44.524;11.284;2023-12-20T13:20:47;12.50;49.90
5192;DHT22;2615;44.524;11.284;2023-12-20T13:23:15;12.50;49.90
5192;DHT22;2615;44.524;11.284;2023-12-20T13:25:45;12.40;49.90
5192;DHT22;2615;44.524;11.284;2023-12-20T13:28:13;12.30;49.80
5192;DHT22;2615;44.524;11.284;2023-12-20T13:30:42;12.30;49.80
5192;DHT22;2615;44.524;11.284;2023-12-20T13:33:11;12.20;49.90
5192;DHT22;2615;44.524;11.284;2023-12-20T13:35:41;12.10;49.90
5192;DHT22;2615;44.524;11.284;2023-12-20T13:38:09;12.10;49.90
5192;DHT22;2615;44.524;11.284;2023-12-20T13:40:37;12.00;49.90
5192;DHT22;2615;44.524;11.284;2023-12-20T13:43:05;12.00;50.00
5192;DHT22;2615;44.524;11.284;2023-12-20T13:45:33;11.90;49.90
5192;DHT22;2615;44.524;11.284;2023-12-20T13:48:02;11.80;49.90
5192;DHT22;2615;44.524;11.284;2023-12-20T13:50:31;11.80;50.00
5192;DHT22;2615;44.524;11.284;2023-12-20T13:53:01;11.70;50.00
5192;DHT22;2615;44.524;11.284;2023-12-20T13:55:31;11.60;50.00
5192;DHT22;2615;44.524;11.284;2023-12-20T13:57:59;11.60;50.10
5192;DHT22;2615;44.524;11.284;2023-12-20T14:00:27;11.60;50.10
5192;DHT22;2615;44.524;11.284;2023-12-20T14:02:55;11.50;50.10
5192;DHT22;2615;44.524;11.284;2023-12-20T14:05:24;11.50;50.10
5192;DHT22;2615;44.524;11.284;2023-12-20T14:07:55;11.40;50.10
5192;DHT22;2615;44.524;11.284;2023-12-20T14:10:26;11.40;50.10
5192;DHT22;2615;44.524;11.284;2023-12-20T14:12:55;11.40;50.20
5192;DHT22;2615;44.524;11.284;2023-12-20T14:15:23;11.40;50.30
5192;DHT22;2615;44.524;11.284;2023-12-20T14:17:52;11.40;50.30
5192;DHT22;2615;44.524;11.284;2023-12-20T14:20:21;11.40;50.30
5192;DHT22;2615;44.524;11.284;2023-12-20T14:22:50;11.40;50.20
5192;DHT22;2615;44.524;11.284;2023-12-20T14:25:18;11.30;50.10
5192;DHT22;2615;44.524;11.284;2023-12-20T14:27:47;11.20;50.00
5192;DHT22;2615;44.524;11.284;2023-12-20T14:30:16;11.20;50.10
5192;DHT22;2615;44.524;11.284;2023-12-20T14:32:44;11.20;50.20
5192;DHT22;2615;44.524;11.284;2023-12-20T14:35:13;11.20;50.20
5192;DHT22;2615;44.524;11.284;2023-12-20T14:37:41;11.20;50.30
5192;DHT22;2615;44.524;11.284;2023-12-20T14:40:11;11.20;50.30
5192;DHT22;2615;44.524;11.284;2023-12-20T14:42:42;11.20;50.30
5192;DHT22;2615;44.524;11.284;2023-12-20T14:45:12;11.20;50.30
5192;DHT22;2615;44.524;11.284;2023-12-20T14:47:41;11.20;50.30
5192;DHT22;2615;44.524;11.284;2023-12-20T14:50:10;11.20;50.30
5192;DHT22;2615;44.524;11.284;2023-12-20T14:52:39;11.20;50.40
5192;DHT22;2615;44.524;11.284;2023-12-20T14:55:07;11.10;50.30
5192;DHT22;2615;44.524;11.284;2023-12-20T14:57:36;11.10;50.40
5192;DHT22;2615;44.524;11.284;2023-12-20T15:00:06;11.10;50.40
5192;DHT22;2615;44.524;11.284;2023-12-20T15:02:36;11.10;50.40
5192;DHT22;2615;44.524;11.284;2023-12-20T15:05:04;11.10;50.40
5192;DHT22;2615;44.524;11.284;2023-12-20T15:07:33;11.10;50.50
5192;DHT22;2615;44.524;11.284;2023-12-20T15:10:01;11.00;50.40
5192;DHT22;2615;44.524;11.284;2023-12-20T15:12:29;11.00;50.50
5192;DHT22;2615;44.524;11.284;2023-12-20T15:14:57;11.00;50.50
5192;DHT22;2615;44.524;11.284;2023-12-20T15:17:25;11.00;50.50
5192;DHT22;2615;44.524;11.284;2023-12-20T15:19:55;10.90;50.40
5192;DHT22;2615;44.524;11.284;2023-12-20T15:22:23;10.90;50.50
5192;DHT22;2615;44.524;11.284;2023-12-20T15:24:53;10.90;50.50
5192;DHT22;2615;44.524;11.284;2023-12-20T15:27:22;10.90;50.60
5192;DHT22;2615;44.524;11.284;2023-12-20T15:29:51;10.90;50.70
5192;DHT22;2615;44.524;11.284;2023-12-20T15:32:19;10.80;50.50
5192;DHT22;2615;44.524;11.284;2023-12-20T15:34:47;10.80;50.60
5192;DHT22;2615;44.524;11.284;2023-12-20T15:37:17;10.80;50.60
5192;DHT22;2615;44.524;11.284;2023-12-20T15:39:46;10.70;50.60
5192;DHT22;2615;44.524;11.284;2023-12-20T15:42:14;10.70;50.70
5192;DHT22;2615;44.524;11.284;2023-12-20T15:44:42;10.70;50.70
5192;DHT22;2615;44.524;11.284;2023-12-20T15:47:10;10.70;50.70
5192;DHT22;2615;44.524;11.284;2023-12-20T15:49:38;10.60;50.70
5192;DHT22;2615;44.524;11.284;2023-12-20T15:52:07;10.60;50.70
5192;DHT22;2615;44.524;11.284;2023-12-20T15:54:36;10.60;50.80
5192;DHT22;2615;44.524;11.284;2023-12-20T15:57:06;10.50;50.80
5192;DHT22;2615;44.524;11.284;2023-12-20T15:59:34;10.50;50.80
5192;DHT22;2615;44.524;11.284;2023-12-20T16:02:03;10.40;50.80
5192;DHT22;2615;44.524;11.284;2023-12-20T16:04:31;10.30;50.80
5192;DHT22;2615;44.524;11.284;2023-12-20T16:06:59;10.30;50.90